createdAt,value
2022-09-27T00:00:11.518Z,10.28
2022-09-27T00:03:02.037Z,10.28
2022-09-27T00:05:48.730Z,10.36
2022-09-27T00:08:36.752Z,10.35
2022-09-27T00:11:33.359Z,10.37
2022-09-27T00:14:19.729Z,10.40
2022-09-27T00:17:05.899Z,10.30
2022-09-27T00:19:52.218Z,10.37
2022-09-27T00:22:38.675Z,10.25
2022-09-27T00:25:25.496Z,10.38
2022-09-27T00:28:12.266Z,10.27
2022-09-27T00:30:59.585Z,10.18
2022-09-27T00:33:46.055Z,10.26
2022-09-27T00:36:33.330Z,10.20
2022-09-27T00:39:20.035Z,10.18
2022-09-27T00:42:10.778Z,10.21
2022-09-27T00:45:05.669Z,10.20
2022-09-27T00:48:01.152Z,10.24
2022-09-27T00:50:52.219Z,10.24
2022-09-27T00:53:53.678Z,10.20
2022-09-27T00:56:42.462Z,10.32
2022-09-27T00:59:46.688Z,10.23
2022-09-27T01:02:35.283Z,10.20
2022-09-27T01:05:25.587Z,10.23
2022-09-27T01:08:11.875Z,10.25
2022-09-27T01:11:18.615Z,10.20
2022-09-27T01:14:28.762Z,10.25
2022-09-27T01:17:39.774Z,10.22
2022-09-27T01:20:38.598Z,10.25
2022-09-27T01:23:24.927Z,10.13
2022-09-27T01:26:49.269Z,10.15
2022-09-27T01:29:59.957Z,10.15
2022-09-27T01:32:56.666Z,10.27
2022-09-27T01:35:52.878Z,10.22
2022-09-27T01:38:51.287Z,10.24
2022-09-27T01:42:11.258Z,10.11
2022-09-27T01:45:56.756Z,10.30
2022-09-27T01:49:17.429Z,10.37
2022-09-27T01:52:08.022Z,10.33
2022-09-27T01:54:59.497Z,10.29
2022-09-27T01:58:32.025Z,10.33
2022-09-27T02:01:22.239Z,10.15
2022-09-27T02:04:13.773Z,10.26
2022-09-27T02:07:37.885Z,10.22
2022-09-27T02:10:30.549Z,10.18
2022-09-27T02:13:52.326Z,10.19
2022-09-27T02:17:04.995Z,10.05
2022-09-27T02:20:07.188Z,10.00
2022-09-27T02:23:36.882Z,9.89
2022-09-27T02:26:36.184Z,9.83
2022-09-27T02:29:33.277Z,9.77
2022-09-27T02:32:19.807Z,9.73
2022-09-27T02:35:19.767Z,9.69
2022-09-27T02:38:07.852Z,9.60
2022-09-27T02:40:54.718Z,9.59
2022-09-27T02:43:42.371Z,9.58
2022-09-27T02:46:29.513Z,9.53
2022-09-27T02:49:50.387Z,9.56
2022-09-27T02:52:54.507Z,9.54
2022-09-27T02:56:08.205Z,9.47
2022-09-27T02:59:36.500Z,9.37
2022-09-27T03:03:00.900Z,9.47
2022-09-27T03:06:11.608Z,9.38
2022-09-27T03:08:58.239Z,9.46
2022-09-27T03:11:45.058Z,9.49
2022-09-27T03:14:31.748Z,9.52
2022-09-27T03:17:40.871Z,9.51
2022-09-27T03:21:02.648Z,9.47
2022-09-27T03:23:49.136Z,9.52
2022-09-27T03:26:36.564Z,9.44
2022-09-27T03:29:23.411Z,9.41
2022-09-27T03:32:16.897Z,9.55
2022-09-27T03:35:19.613Z,9.54
2022-09-27T03:38:07.327Z,9.52
2022-09-27T03:40:54.003Z,9.60
2022-09-27T03:43:40.625Z,9.64
2022-09-27T03:46:27.436Z,9.62
2022-09-27T03:49:14.216Z,9.62
2022-09-27T03:52:01.027Z,9.58
2022-09-27T03:54:48.005Z,9.67
2022-09-27T03:57:34.349Z,9.64
2022-09-27T04:00:21.698Z,9.55
2022-09-27T04:03:08.376Z,9.58
2022-09-27T04:06:00.859Z,9.58
2022-09-27T04:08:56.092Z,9.57
2022-09-27T04:11:47.261Z,9.58
2022-09-27T04:14:34.054Z,9.62
2022-09-27T04:17:42.509Z,9.58
2022-09-27T04:20:48.127Z,9.56
2022-09-27T04:23:34.939Z,9.59
2022-09-27T04:26:21.247Z,9.60
2022-09-27T04:29:28.309Z,9.52
2022-09-27T04:32:19.354Z,9.52
2022-09-27T04:35:53.288Z,9.59
2022-09-27T04:38:39.754Z,9.64
2022-09-27T04:41:29.435Z,9.65
2022-09-27T04:44:16.099Z,9.59
2022-09-27T04:49:57.723Z,9.55
2022-09-27T04:52:44.578Z,9.39
2022-09-27T04:55:30.726Z,9.55
2022-09-27T04:58:17.869Z,9.54
2022-09-27T05:01:04.961Z,9.54
2022-09-27T05:04:14.358Z,9.56
2022-09-27T05:07:05.048Z,9.60
2022-09-27T05:09:59.287Z,9.54
2022-09-27T05:12:46.133Z,9.56
2022-09-27T05:15:36.312Z,9.53
2022-09-27T05:18:42.252Z,9.49
2022-09-27T05:21:47.247Z,9.45
2022-09-27T05:24:33.834Z,9.47
2022-09-27T05:27:20.942Z,9.36
2022-09-27T05:30:08.253Z,9.42
2022-09-27T05:33:15.108Z,9.30
2022-09-27T05:36:02.264Z,9.24
2022-09-27T05:38:51.664Z,9.38
2022-09-27T05:41:41.211Z,9.38
2022-09-27T05:44:27.937Z,9.36
2022-09-27T05:47:18.480Z,9.47
2022-09-27T05:50:05.662Z,9.50
2022-09-27T05:52:52.595Z,9.54
2022-09-27T05:55:39.735Z,9.62
2022-09-27T05:58:28.395Z,9.64
2022-09-27T06:01:28.383Z,9.68
2022-09-27T06:04:40.968Z,9.74
2022-09-27T06:07:50.386Z,9.38
2022-09-27T06:10:43.018Z,9.89
2022-09-27T06:13:30.481Z,9.78
2022-09-27T06:16:17.080Z,9.91
2022-09-27T06:19:05.239Z,9.86
2022-09-27T06:21:51.998Z,9.83
2022-09-27T06:24:38.593Z,9.87
2022-09-27T06:27:32.059Z,9.82
2022-09-27T06:30:27.211Z,9.90
2022-09-27T06:33:17.067Z,9.94
2022-09-27T06:36:09.933Z,9.87
2022-09-27T06:39:01.691Z,9.89
2022-09-27T06:42:11.280Z,9.82
2022-09-27T06:45:16.394Z,9.74
2022-09-27T06:48:22.419Z,9.76
2022-09-27T06:51:24.616Z,9.72
2022-09-27T06:54:11.329Z,9.67
2022-09-27T06:57:01.720Z,9.62
2022-09-27T07:00:07.782Z,9.52
2022-09-27T07:03:37.648Z,9.65
2022-09-27T07:06:38.439Z,9.64
2022-09-27T07:09:38.887Z,9.66
2022-09-27T07:12:25.209Z,9.59
2022-09-27T07:15:13.294Z,9.64
2022-09-27T07:18:00.234Z,9.66
2022-09-27T07:20:48.801Z,9.72
2022-09-27T07:23:37.030Z,9.70
2022-09-27T07:26:25.059Z,9.65
2022-09-27T07:29:11.415Z,9.61
2022-09-27T07:31:58.152Z,9.59
2022-09-27T07:34:45.099Z,9.66
2022-09-27T07:37:37.372Z,9.74
2022-09-27T07:40:24.607Z,9.73
2022-09-27T07:43:12.249Z,9.62
2022-09-27T07:45:59.808Z,9.75
2022-09-27T07:48:56.779Z,9.92
2022-09-27T07:52:03.808Z,10.04
2022-09-27T07:55:17.502Z,10.13
2022-09-27T07:58:17.845Z,10.23
2022-09-27T08:01:05.267Z,10.18
2022-09-27T08:03:52.122Z,10.38
2022-09-27T08:06:39.302Z,10.41
2022-09-27T08:09:26.457Z,10.38
2022-09-27T08:12:13.265Z,10.47
2022-09-27T08:15:01.489Z,10.45
2022-09-27T08:17:47.972Z,10.61
2022-09-27T08:20:45.999Z,10.67
2022-09-27T08:23:59.867Z,10.92
2022-09-27T08:27:12.162Z,11.14
2022-09-27T08:30:32.448Z,11.33
2022-09-27T08:33:20.649Z,11.42
2022-09-27T08:36:16.354Z,11.06
2022-09-27T08:39:04.508Z,11.02
2022-09-27T08:42:36.766Z,11.02
2022-09-27T08:45:26.512Z,10.97
2022-09-27T08:48:16.474Z,10.98
2022-09-27T08:51:10.823Z,10.99
2022-09-27T08:54:08.623Z,11.16
2022-09-27T08:57:05.125Z,11.09
2022-09-27T09:00:02.698Z,11.05
2022-09-27T09:02:49.768Z,11.14
2022-09-27T09:05:37.590Z,11.46
2022-09-27T09:08:50.743Z,11.74
2022-09-27T09:12:25.848Z,12.03
2022-09-27T09:15:54.135Z,12.22
2022-09-27T09:19:11.525Z,12.27
2022-09-27T09:22:30.128Z,12.23
2022-09-27T09:25:55.951Z,12.27
2022-09-27T09:29:27.228Z,12.44
2022-09-27T09:32:32.444Z,12.73
2022-09-27T09:35:27.027Z,13.02
2022-09-27T09:38:25.868Z,13.32
2022-09-27T09:41:27.779Z,13.41
2022-09-27T09:44:23.906Z,13.37
2022-09-27T09:47:22.682Z,13.40
2022-09-27T09:50:27.364Z,13.43
2022-09-27T09:53:32.817Z,13.46
2022-09-27T09:56:29.729Z,13.55
2022-09-27T09:59:38.467Z,13.72
2022-09-27T10:02:39.820Z,14.12
2022-09-27T10:05:34.105Z,14.30
2022-09-27T10:08:24.487Z,14.76
2022-09-27T10:11:42.336Z,14.46
2022-09-27T10:14:33.593Z,14.07
2022-09-27T10:17:30.195Z,13.46
2022-09-27T10:20:44.070Z,13.12
2022-09-27T10:23:32.162Z,12.77
2022-09-27T10:26:50.932Z,12.37
2022-09-27T10:29:39.179Z,12.13
2022-09-27T10:32:37.381Z,12.19
2022-09-27T10:35:46.962Z,12.20
2022-09-27T10:38:39.950Z,12.16
2022-09-27T10:41:47.696Z,12.18
2022-09-27T10:44:43.369Z,12.05
2022-09-27T10:47:57.247Z,11.87
2022-09-27T10:51:04.228Z,11.82
2022-09-27T10:54:01.666Z,11.83
2022-09-27T10:57:00.242Z,11.67
2022-09-27T10:59:53.531Z,11.65
2022-09-27T11:02:40.243Z,11.40
2022-09-27T11:05:34.066Z,11.15
2022-09-27T11:08:23.921Z,11.06
2022-09-27T11:11:21.237Z,10.88
2022-09-27T11:14:27.078Z,10.77
2022-09-27T11:17:27.640Z,10.35
2022-09-27T11:20:52.325Z,10.49
2022-09-27T11:24:00.253Z,10.48
2022-09-27T11:27:18.092Z,10.19
2022-09-27T11:30:07.556Z,9.99
2022-09-27T11:33:30.958Z,9.81
2022-09-27T11:36:42.082Z,9.58
2022-09-27T11:39:43.884Z,9.33
2022-09-27T11:42:52.550Z,9.15
2022-09-27T11:46:29.106Z,8.94
2022-09-27T11:49:21.759Z,8.57
2022-09-27T11:52:49.730Z,8.45
2022-09-27T11:55:57.780Z,8.28
2022-09-27T11:59:03.054Z,8.40
2022-09-27T12:02:37.768Z,8.56
2022-09-27T12:06:07.275Z,8.94
2022-09-27T12:09:06.541Z,9.24
2022-09-27T12:12:04.564Z,9.43
2022-09-27T12:15:14.281Z,9.57
2022-09-27T12:18:21.014Z,9.61
2022-09-27T12:21:10.246Z,9.42
2022-09-27T12:23:58.050Z,9.50
2022-09-27T12:27:02.309Z,9.46
2022-09-27T12:29:50.060Z,9.35
2022-09-27T12:32:47.865Z,9.15
2022-09-27T12:35:51.512Z,9.19
2022-09-27T12:38:48.426Z,9.34
2022-09-27T12:41:40.369Z,9.33
2022-09-27T12:44:40.967Z,9.32
2022-09-27T12:47:40.486Z,9.30
2022-09-27T12:50:43.648Z,9.21
2022-09-27T12:53:56.445Z,9.13
2022-09-27T12:56:51.814Z,9.02
2022-09-27T13:00:18.347Z,8.91
2022-09-27T13:03:26.239Z,8.90
2022-09-27T13:06:56.809Z,9.15
2022-09-27T13:10:26.287Z,9.24
2022-09-27T13:13:21.220Z,9.51
2022-09-27T13:16:08.897Z,9.64
2022-09-27T13:19:04.178Z,9.72
2022-09-27T13:21:51.282Z,9.98
2022-09-27T13:24:47.132Z,9.97
2022-09-27T13:27:46.017Z,10.16
2022-09-27T13:30:40.200Z,10.02
2022-09-27T13:33:34.721Z,10.45
2022-09-27T13:36:33.671Z,10.44
2022-09-27T13:39:25.422Z,10.39
2022-09-27T13:42:46.549Z,10.26
2022-09-27T13:45:41.736Z,10.09
2022-09-27T13:48:37.814Z,10.01
2022-09-27T13:51:40.845Z,9.96
2022-09-27T13:54:51.445Z,9.88
2022-09-27T13:57:53.853Z,9.86
2022-09-27T14:00:58.209Z,10.06
2022-09-27T14:04:19.804Z,10.06
2022-09-27T14:07:12.463Z,10.04
2022-09-27T14:10:01.050Z,10.11
2022-09-27T14:12:53.230Z,10.05
2022-09-27T14:15:40.248Z,9.72
2022-09-27T14:18:29.868Z,9.79
2022-09-27T14:21:27.120Z,9.86
2022-09-27T14:24:44.242Z,9.96
2022-09-27T14:27:42.723Z,9.93
2022-09-27T14:30:42.334Z,10.08
2022-09-27T14:33:45.315Z,10.22
2022-09-27T14:37:04.123Z,10.26
2022-09-27T14:40:19.114Z,10.30
2022-09-27T14:43:15.629Z,10.32
2022-09-27T14:46:08.769Z,10.34
2022-09-27T14:48:56.212Z,10.32
2022-09-27T14:51:43.435Z,10.33
2022-09-27T14:54:33.050Z,10.62
2022-09-27T14:57:19.592Z,10.69
2022-09-27T15:00:15.339Z,10.85
2022-09-27T15:03:06.075Z,10.74
2022-09-27T15:05:54.296Z,10.56
2022-09-27T15:08:41.538Z,10.53
2022-09-27T15:11:29.890Z,10.48
2022-09-27T15:14:19.886Z,10.54
2022-09-27T15:17:07.005Z,10.74
2022-09-27T15:19:58.947Z,10.69
2022-09-27T15:22:45.642Z,10.52
2022-09-27T15:25:36.608Z,10.50
2022-09-27T15:28:27.946Z,10.46
2022-09-27T15:31:15.267Z,10.50
2022-09-27T15:34:02.533Z,10.58
2022-09-27T15:36:51.175Z,10.62
2022-09-27T15:39:40.044Z,10.76
2022-09-27T15:42:26.752Z,10.92
2022-09-27T15:45:35.764Z,10.52
2022-09-27T15:48:22.212Z,10.92
2022-09-27T15:51:50.770Z,10.81
2022-09-27T15:54:37.303Z,10.69
2022-09-27T15:57:29.769Z,10.46
2022-09-27T16:00:18.439Z,10.75
2022-09-27T16:03:04.732Z,10.68
2022-09-27T16:05:51.351Z,10.56
2022-09-27T16:08:37.768Z,10.53
2022-09-27T16:11:25.385Z,10.30
2022-09-27T16:14:16.519Z,10.23
2022-09-27T16:17:03.135Z,10.22
2022-09-27T16:19:50.509Z,10.10
2022-09-27T16:22:36.928Z,9.93
2022-09-27T16:25:23.662Z,9.73
2022-09-27T16:28:10.688Z,9.66
2022-09-27T16:31:04.953Z,9.76
2022-09-27T16:33:51.508Z,9.72
2022-09-27T16:36:41.067Z,9.68
2022-09-27T16:39:27.579Z,9.66
2022-09-27T16:42:14.553Z,9.55
2022-09-27T16:45:04.821Z,9.51
2022-09-27T16:47:53.790Z,9.32
2022-09-27T16:50:59.106Z,9.35
2022-09-27T16:53:45.769Z,9.28
2022-09-27T16:56:33.894Z,9.29
2022-09-27T16:59:21.036Z,9.18
2022-09-27T17:02:09.673Z,9.07
2022-09-27T17:04:56.023Z,9.11
2022-09-27T17:07:42.484Z,9.04
2022-09-27T17:10:31.628Z,8.91
2022-09-27T17:13:18.210Z,9.06
2022-09-27T17:16:05.394Z,9.04
2022-09-27T17:18:52.128Z,8.91
2022-09-27T17:21:38.666Z,8.99
2022-09-27T17:24:25.481Z,8.92
2022-09-27T17:27:12.074Z,8.99
2022-09-27T17:29:58.351Z,9.05
2022-09-27T17:32:44.623Z,9.03
2022-09-27T17:35:31.439Z,8.69
2022-09-27T17:38:18.017Z,9.02
2022-09-27T17:41:06.997Z,8.53
2022-09-27T17:43:56.484Z,8.91
2022-09-27T17:46:43.065Z,8.89
2022-09-27T17:49:48.415Z,8.49
2022-09-27T17:52:35.053Z,8.71
2022-09-27T17:55:22.269Z,8.65
2022-09-27T17:58:09.528Z,8.53
2022-09-27T18:01:00.329Z,8.39
2022-09-27T18:03:48.152Z,8.28
2022-09-27T18:06:34.531Z,8.19
2022-09-27T18:09:21.096Z,8.22
2022-09-27T18:12:07.724Z,8.12
2022-09-27T18:14:57.115Z,8.12
2022-09-27T18:17:43.983Z,8.15
2022-09-27T18:20:34.036Z,8.02
2022-09-27T18:23:20.283Z,8.09
2022-09-27T18:26:10.033Z,8.02
2022-09-27T18:29:01.997Z,7.94
2022-09-27T18:31:49.383Z,7.92
2022-09-27T18:34:35.958Z,7.13
2022-09-27T18:37:22.251Z,7.86
2022-09-27T18:40:08.899Z,7.66
2022-09-27T18:42:55.423Z,7.65
2022-09-27T18:45:41.753Z,7.30
2022-09-27T18:48:30.148Z,7.61
2022-09-27T18:51:19.658Z,7.51
2022-09-27T18:54:09.465Z,7.41
2022-09-27T18:56:56.376Z,7.18
2022-09-27T18:59:42.843Z,7.30
2022-09-27T19:02:29.420Z,7.28
2022-09-27T19:05:16.087Z,7.24
2022-09-27T19:08:02.435Z,7.01
2022-09-27T19:10:48.747Z,6.96
2022-09-27T19:13:43.726Z,6.94
2022-09-27T19:16:35.107Z,6.89
2022-09-27T19:19:22.199Z,6.91
2022-09-27T19:22:09.060Z,6.89
2022-09-27T19:24:55.408Z,6.97
2022-09-27T19:27:43.280Z,6.94
2022-09-27T19:30:30.010Z,6.82
2022-09-27T19:33:16.348Z,6.73
2022-09-27T19:36:05.190Z,6.51
2022-09-27T19:38:51.991Z,6.57
2022-09-27T19:41:40.186Z,6.21
2022-09-27T19:44:26.826Z,6.39
2022-09-27T19:47:13.471Z,6.48
2022-09-27T19:49:59.794Z,6.38
2022-09-27T19:52:46.854Z,6.40
2022-09-27T19:55:33.941Z,6.56
2022-09-27T19:58:20.243Z,6.52
2022-09-27T20:01:11.583Z,6.51
2022-09-27T20:03:59.735Z,6.57
2022-09-27T20:06:47.011Z,6.56
2022-09-27T20:09:33.539Z,6.59
2022-09-27T20:12:20.047Z,6.63
2022-09-27T20:15:07.031Z,6.65
2022-09-27T20:17:53.780Z,6.72
2022-09-27T20:20:40.292Z,6.66
2022-09-27T20:23:28.051Z,6.69
2022-09-27T20:26:16.101Z,6.52
2022-09-27T20:29:04.249Z,6.45
2022-09-27T20:32:15.941Z,6.41
2022-09-27T20:34:57.786Z,6.43
2022-09-27T20:37:44.306Z,6.39
2022-09-27T20:40:30.809Z,6.50
2022-09-27T20:43:17.659Z,6.52
2022-09-27T20:46:11.836Z,6.66
2022-09-27T20:49:00.969Z,6.67
2022-09-27T20:51:51.337Z,6.68
2022-09-27T20:54:37.886Z,6.72
2022-09-27T20:57:46.445Z,6.78
2022-09-27T21:00:32.034Z,6.76
2022-09-27T21:03:21.735Z,6.85
2022-09-27T21:06:08.787Z,6.92
2022-09-27T21:08:55.875Z,6.99
2022-09-27T21:11:42.784Z,6.87
2022-09-27T21:14:29.300Z,6.93
2022-09-27T21:17:21.161Z,6.90
2022-09-27T21:20:08.207Z,6.88
2022-09-27T21:22:54.693Z,6.88
2022-09-27T21:25:41.612Z,6.84
2022-09-27T21:28:35.507Z,6.75
2022-09-27T21:31:25.864Z,6.90
2022-09-27T21:34:12.454Z,6.93
2022-09-27T21:36:58.976Z,7.03
2022-09-27T21:39:45.560Z,6.99
2022-09-27T21:42:32.127Z,6.84
2022-09-27T21:45:18.779Z,6.86
2022-09-27T21:48:05.098Z,7.07
2022-09-27T21:50:51.262Z,6.75
2022-09-27T21:53:39.960Z,7.07
2022-09-27T21:56:28.558Z,7.15
2022-09-27T21:59:15.655Z,7.18
2022-09-27T22:02:01.963Z,7.18
2022-09-27T22:04:49.228Z,7.28
2022-09-27T22:07:35.761Z,7.07
2022-09-27T22:10:22.225Z,7.29
2022-09-27T22:13:08.702Z,7.21
2022-09-27T22:15:55.456Z,7.35
2022-09-27T22:18:47.417Z,7.52
2022-09-27T22:21:36.158Z,7.30
2022-09-27T22:24:22.858Z,7.43
2022-09-27T22:27:09.083Z,7.53
2022-09-27T22:29:55.309Z,7.43
2022-09-27T22:32:45.697Z,7.45
2022-09-27T22:35:32.629Z,7.36
2022-09-27T22:38:18.844Z,7.39
2022-09-27T22:41:04.939Z,7.33
2022-09-27T22:43:53.508Z,7.29
2022-09-27T22:46:40.302Z,7.24
2022-09-27T22:49:26.590Z,7.32
2022-09-27T22:52:12.715Z,7.41
2022-09-27T22:54:59.222Z,7.40
2022-09-27T22:57:45.824Z,7.33
2022-09-27T23:00:33.377Z,7.39
2022-09-27T23:03:20.645Z,7.39
2022-09-27T23:06:07.392Z,7.45
2022-09-27T23:08:54.981Z,7.72
2022-09-27T23:11:41.138Z,7.58
2022-09-27T23:14:27.686Z,7.36
2022-09-27T23:17:15.770Z,7.55
2022-09-27T23:20:02.568Z,7.41
2022-09-27T23:22:49.667Z,7.57
2022-09-27T23:25:36.163Z,7.63
2022-09-27T23:28:22.424Z,7.49
2022-09-27T23:31:14.600Z,7.43
2022-09-27T23:34:04.294Z,7.54
2022-09-27T23:36:51.206Z,7.64
2022-09-27T23:39:37.388Z,7.59
2022-09-27T23:42:23.953Z,7.42
2022-09-27T23:45:10.983Z,7.66
2022-09-27T23:47:57.509Z,7.67
2022-09-27T23:50:48.163Z,7.77
2022-09-27T23:53:34.670Z,7.84
2022-09-27T23:56:21.008Z,7.89
2022-09-27T23:59:07.558Z,7.75
